sensor_id;sensor_type;location;lat;lon;timestamp;P1;durP1;ratioP1;P2;durP2;ratioP2
29412;SDS011;16389;50.126;8.450;2023-03-01T00:01:06;9.55;;;4.80;;
29412;SDS011;16389;50.126;8.450;2023-03-01T00:03:33;7.45;;;4.63;;
29412;SDS011;16389;50.126;8.450;2023-03-01T00:05:59;11.13;;;5.40;;
29412;SDS011;16389;50.126;8.450;2023-03-01T00:08:26;8.82;;;5.25;;
29412;SDS011;16389;50.126;8.450;2023-03-01T00:13:36;7.35;;;4.47;;
29412;SDS011;16389;50.126;8.450;2023-03-01T00:16:03;7.85;;;4.25;;
29412;SDS011;16389;50.126;8.450;2023-03-01T00:18:34;9.35;;;5.18;;
29412;SDS011;16389;50.126;8.450;2023-03-01T00:20:59;7.10;;;3.97;;
29412;SDS011;16389;50.126;8.450;2023-03-01T00:23:25;8.90;;;5.00;;
29412;SDS011;16389;50.126;8.450;2023-03-01T00:25:52;7.43;;;5.53;;
29412;SDS011;16389;50.126;8.450;2023-03-01T00:28:18;9.38;;;4.57;;
29412;SDS011;16389;50.126;8.450;2023-03-01T00:30:44;8.77;;;5.13;;
29412;SDS011;16389;50.126;8.450;2023-03-01T00:33:10;8.68;;;5.43;;
29412;SDS011;16389;50.126;8.450;2023-03-01T00:35:36;8.95;;;5.75;;
29412;SDS011;16389;50.126;8.450;2023-03-01T00:38:02;8.80;;;5.60;;
29412;SDS011;16389;50.126;8.450;2023-03-01T00:40:29;8.68;;;5.97;;
29412;SDS011;16389;50.126;8.450;2023-03-01T00:42:58;10.18;;;5.68;;
29412;SDS011;16389;50.126;8.450;2023-03-01T00:45:23;9.18;;;5.88;;
29412;SDS011;16389;50.126;8.450;2023-03-01T00:47:50;10.48;;;5.30;;
29412;SDS011;16389;50.126;8.450;2023-03-01T00:50:16;9.05;;;5.75;;
29412;SDS011;16389;50.126;8.450;2023-03-01T00:52:42;8.80;;;5.57;;
29412;SDS011;16389;50.126;8.450;2023-03-01T00:55:08;5.85;;;4.88;;
29412;SDS011;16389;50.126;8.450;2023-03-01T00:57:34;9.55;;;5.25;;
29412;SDS011;16389;50.126;8.450;2023-03-01T00:59:59;11.32;;;5.78;;
29412;SDS011;16389;50.126;8.450;2023-03-01T01:02:25;7.53;;;5.88;;
29412;SDS011;16389;50.126;8.450;2023-03-01T01:04:51;9.60;;;5.32;;
29412;SDS011;16389;50.126;8.450;2023-03-01T01:07:17;9.50;;;5.25;;
29412;SDS011;16389;50.126;8.450;2023-03-01T01:09:42;8.40;;;4.72;;
29412;SDS011;16389;50.126;8.450;2023-03-01T01:12:08;7.82;;;4.80;;
29412;SDS011;16389;50.126;8.450;2023-03-01T01:14:34;9.45;;;5.50;;
29412;SDS011;16389;50.126;8.450;2023-03-01T01:17:00;6.07;;;4.40;;
29412;SDS011;16389;50.126;8.450;2023-03-01T01:19:26;12.38;;;5.80;;
29412;SDS011;16389;50.126;8.450;2023-03-01T01:21:52;7.43;;;5.50;;
29412;SDS011;16389;50.126;8.450;2023-03-01T01:24:17;8.18;;;4.85;;
29412;SDS011;16389;50.126;8.450;2023-03-01T01:26:44;9.20;;;5.10;;
29412;SDS011;16389;50.126;8.450;2023-03-01T01:29:11;17.83;;;6.07;;
29412;SDS011;16389;50.126;8.450;2023-03-01T01:31:37;12.07;;;4.70;;
29412;SDS011;16389;50.126;8.450;2023-03-01T01:34:05;9.10;;;6.13;;
29412;SDS011;16389;50.126;8.450;2023-03-01T01:36:32;8.07;;;5.03;;
29412;SDS011;16389;50.126;8.450;2023-03-01T01:38:58;7.63;;;5.85;;
29412;SDS011;16389;50.126;8.450;2023-03-01T01:41:25;10.18;;;5.45;;
29412;SDS011;16389;50.126;8.450;2023-03-01T01:46:41;8.52;;;5.55;;
29412;SDS011;16389;50.126;8.450;2023-03-01T01:49:24;7.85;;;5.20;;
29412;SDS011;16389;50.126;8.450;2023-03-01T01:52:38;10.50;;;5.65;;
29412;SDS011;16389;50.126;8.450;2023-03-01T01:55:10;6.53;;;4.60;;
29412;SDS011;16389;50.126;8.450;2023-03-01T01:57:45;5.88;;;4.53;;
29412;SDS011;16389;50.126;8.450;2023-03-01T02:00:27;7.18;;;4.63;;
29412;SDS011;16389;50.126;8.450;2023-03-01T02:02:58;7.72;;;4.97;;
29412;SDS011;16389;50.126;8.450;2023-03-01T02:05:38;8.52;;;5.53;;
29412;SDS011;16389;50.126;8.450;2023-03-01T02:08:15;10.15;;;5.70;;
29412;SDS011;16389;50.126;8.450;2023-03-01T02:10:43;8.35;;;6.25;;
29412;SDS011;16389;50.126;8.450;2023-03-01T02:13:10;8.30;;;5.43;;
29412;SDS011;16389;50.126;8.450;2023-03-01T02:15:37;6.25;;;5.13;;
29412;SDS011;16389;50.126;8.450;2023-03-01T02:18:04;9.43;;;5.78;;
29412;SDS011;16389;50.126;8.450;2023-03-01T02:20:35;16.40;;;5.53;;
29412;SDS011;16389;50.126;8.450;2023-03-01T02:23:03;14.98;;;5.63;;
29412;SDS011;16389;50.126;8.450;2023-03-01T02:30:29;7.50;;;4.68;;
29412;SDS011;16389;50.126;8.450;2023-03-01T02:32:57;8.32;;;5.07;;
29412;SDS011;16389;50.126;8.450;2023-03-01T02:35:27;7.40;;;5.50;;
29412;SDS011;16389;50.126;8.450;2023-03-01T02:37:56;10.38;;;5.78;;
29412;SDS011;16389;50.126;8.450;2023-03-01T02:40:25;15.75;;;6.88;;
29412;SDS011;16389;50.126;8.450;2023-03-01T02:42:57;11.63;;;6.45;;
29412;SDS011;16389;50.126;8.450;2023-03-01T02:45:24;11.25;;;6.00;;
29412;SDS011;16389;50.126;8.450;2023-03-01T02:47:53;14.27;;;5.18;;
29412;SDS011;16389;50.126;8.450;2023-03-01T02:53:02;10.15;;;6.03;;
29412;SDS011;16389;50.126;8.450;2023-03-01T02:55:50;9.88;;;6.22;;
29412;SDS011;16389;50.126;8.450;2023-03-01T02:58:16;10.30;;;6.03;;
29412;SDS011;16389;50.126;8.450;2023-03-01T03:00:42;9.50;;;5.53;;
29412;SDS011;16389;50.126;8.450;2023-03-01T03:03:20;9.77;;;6.43;;
29412;SDS011;16389;50.126;8.450;2023-03-01T03:05:47;10.02;;;5.43;;
29412;SDS011;16389;50.126;8.450;2023-03-01T03:08:13;9.55;;;6.40;;
29412;SDS011;16389;50.126;8.450;2023-03-01T03:10:48;9.35;;;6.63;;
29412;SDS011;16389;50.126;8.450;2023-03-01T03:13:14;8.73;;;5.95;;
29412;SDS011;16389;50.126;8.450;2023-03-01T03:15:40;9.85;;;5.85;;
29412;SDS011;16389;50.126;8.450;2023-03-01T03:18:08;9.02;;;5.80;;
29412;SDS011;16389;50.126;8.450;2023-03-01T03:20:35;7.30;;;6.17;;
29412;SDS011;16389;50.126;8.450;2023-03-01T03:23:02;13.80;;;6.22;;
29412;SDS011;16389;50.126;8.450;2023-03-01T03:25:29;9.40;;;6.05;;
29412;SDS011;16389;50.126;8.450;2023-03-01T03:27:55;15.25;;;6.30;;
29412;SDS011;16389;50.126;8.450;2023-03-01T03:30:22;10.23;;;6.40;;
29412;SDS011;16389;50.126;8.450;2023-03-01T03:32:53;11.30;;;6.40;;
29412;SDS011;16389;50.126;8.450;2023-03-01T03:35:23;11.50;;;6.43;;
29412;SDS011;16389;50.126;8.450;2023-03-01T03:37:57;14.52;;;7.38;;
29412;SDS011;16389;50.126;8.450;2023-03-01T03:40:35;8.52;;;5.38;;
29412;SDS011;16389;50.126;8.450;2023-03-01T03:43:03;7.85;;;5.43;;
29412;SDS011;16389;50.126;8.450;2023-03-01T03:45:30;8.93;;;5.85;;
29412;SDS011;16389;50.126;8.450;2023-03-01T03:47:58;7.45;;;5.13;;
29412;SDS011;16389;50.126;8.450;2023-03-01T03:50:25;10.75;;;6.57;;
29412;SDS011;16389;50.126;8.450;2023-03-01T03:52:51;11.93;;;6.13;;
29412;SDS011;16389;50.126;8.450;2023-03-01T03:55:16;9.05;;;6.25;;
29412;SDS011;16389;50.126;8.450;2023-03-01T03:57:44;11.88;;;5.50;;
29412;SDS011;16389;50.126;8.450;2023-03-01T04:00:16;10.55;;;6.18;;
29412;SDS011;16389;50.126;8.450;2023-03-01T04:02:44;11.25;;;6.28;;
29412;SDS011;16389;50.126;8.450;2023-03-01T04:05:12;11.43;;;6.53;;
29412;SDS011;16389;50.126;8.450;2023-03-01T04:07:39;12.32;;;6.50;;
29412;SDS011;16389;50.126;8.450;2023-03-01T04:10:06;9.38;;;6.50;;
29412;SDS011;16389;50.126;8.450;2023-03-01T04:12:34;9.90;;;5.93;;
29412;SDS011;16389;50.126;8.450;2023-03-01T04:15:00;9.55;;;5.95;;
29412;SDS011;16389;50.126;8.450;2023-03-01T04:17:37;13.13;;;7.32;;
29412;SDS011;16389;50.126;8.450;2023-03-01T04:20:04;12.00;;;6.65;;
29412;SDS011;16389;50.126;8.450;2023-03-01T04:22:30;9.13;;;6.03;;
29412;SDS011;16389;50.126;8.450;2023-03-01T04:24:57;12.82;;;5.90;;
29412;SDS011;16389;50.126;8.450;2023-03-01T04:27:23;9.32;;;6.03;;
29412;SDS011;16389;50.126;8.450;2023-03-01T04:29:48;16.75;;;7.80;;
29412;SDS011;16389;50.126;8.450;2023-03-01T04:32:14;10.15;;;6.68;;
29412;SDS011;16389;50.126;8.450;2023-03-01T04:34:41;11.52;;;6.38;;
29412;SDS011;16389;50.126;8.450;2023-03-01T04:37:06;12.00;;;6.82;;
29412;SDS011;16389;50.126;8.450;2023-03-01T04:39:33;11.52;;;7.13;;
29412;SDS011;16389;50.126;8.450;2023-03-01T04:42:10;11.85;;;6.75;;
29412;SDS011;16389;50.126;8.450;2023-03-01T04:44:39;18.83;;;6.35;;
29412;SDS011;16389;50.126;8.450;2023-03-01T04:47:05;9.77;;;6.25;;
29412;SDS011;16389;50.126;8.450;2023-03-01T04:49:30;12.13;;;6.03;;
29412;SDS011;16389;50.126;8.450;2023-03-01T04:51:56;10.80;;;5.72;;
29412;SDS011;16389;50.126;8.450;2023-03-01T04:54:26;10.82;;;6.45;;
29412;SDS011;16389;50.126;8.450;2023-03-01T04:56:53;11.25;;;6.28;;
29412;SDS011;16389;50.126;8.450;2023-03-01T04:59:19;11.55;;;5.72;;
29412;SDS011;16389;50.126;8.450;2023-03-01T05:01:47;13.73;;;7.18;;
29412;SDS011;16389;50.126;8.450;2023-03-01T05:04:16;14.02;;;6.47;;
29412;SDS011;16389;50.126;8.450;2023-03-01T05:06:42;14.38;;;6.50;;
29412;SDS011;16389;50.126;8.450;2023-03-01T05:09:08;11.15;;;5.70;;
29412;SDS011;16389;50.126;8.450;2023-03-01T05:11:36;16.27;;;7.35;;
29412;SDS011;16389;50.126;8.450;2023-03-01T05:14:02;12.25;;;5.85;;
29412;SDS011;16389;50.126;8.450;2023-03-01T05:16:29;13.25;;;5.88;;
29412;SDS011;16389;50.126;8.450;2023-03-01T05:18:56;10.18;;;7.03;;
29412;SDS011;16389;50.126;8.450;2023-03-01T05:21:22;9.82;;;5.72;;
29412;SDS011;16389;50.126;8.450;2023-03-01T05:23:48;13.23;;;6.85;;
29412;SDS011;16389;50.126;8.450;2023-03-01T05:26:14;10.98;;;6.35;;
29412;SDS011;16389;50.126;8.450;2023-03-01T05:28:42;8.32;;;5.93;;
29412;SDS011;16389;50.126;8.450;2023-03-01T05:31:08;15.27;;;7.45;;
29412;SDS011;16389;50.126;8.450;2023-03-01T05:33:37;13.35;;;6.28;;
29412;SDS011;16389;50.126;8.450;2023-03-01T05:36:03;15.00;;;6.95;;
29412;SDS011;16389;50.126;8.450;2023-03-01T05:38:29;13.63;;;6.10;;
29412;SDS011;16389;50.126;8.450;2023-03-01T05:40:55;10.25;;;5.65;;
29412;SDS011;16389;50.126;8.450;2023-03-01T05:43:20;11.02;;;6.18;;
29412;SDS011;16389;50.126;8.450;2023-03-01T05:45:46;10.75;;;6.85;;
29412;SDS011;16389;50.126;8.450;2023-03-01T05:48:12;11.10;;;6.70;;
29412;SDS011;16389;50.126;8.450;2023-03-01T05:50:42;13.57;;;6.65;;
29412;SDS011;16389;50.126;8.450;2023-03-01T05:53:16;10.93;;;6.18;;
29412;SDS011;16389;50.126;8.450;2023-03-01T05:55:46;7.60;;;5.80;;
29412;SDS011;16389;50.126;8.450;2023-03-01T05:58:16;12.45;;;5.20;;
29412;SDS011;16389;50.126;8.450;2023-03-01T06:00:43;10.98;;;6.45;;
29412;SDS011;16389;50.126;8.450;2023-03-01T06:03:11;9.23;;;6.10;;
29412;SDS011;16389;50.126;8.450;2023-03-01T06:05:38;9.75;;;5.97;;
29412;SDS011;16389;50.126;8.450;2023-03-01T06:08:04;9.70;;;5.10;;
29412;SDS011;16389;50.126;8.450;2023-03-01T06:10:30;9.65;;;6.63;;
29412;SDS011;16389;50.126;8.450;2023-03-01T06:12:55;9.90;;;6.90;;
29412;SDS011;16389;50.126;8.450;2023-03-01T06:15:21;8.00;;;5.25;;
29412;SDS011;16389;50.126;8.450;2023-03-01T06:17:47;11.15;;;6.30;;
29412;SDS011;16389;50.126;8.450;2023-03-01T06:20:14;7.43;;;5.68;;
29412;SDS011;16389;50.126;8.450;2023-03-01T06:22:41;13.20;;;5.00;;
29412;SDS011;16389;50.126;8.450;2023-03-01T06:25:07;10.38;;;4.97;;
29412;SDS011;16389;50.126;8.450;2023-03-01T06:27:34;9.70;;;5.88;;
29412;SDS011;16389;50.126;8.450;2023-03-01T06:30:00;10.63;;;6.50;;
29412;SDS011;16389;50.126;8.450;2023-03-01T06:32:26;6.85;;;5.18;;
29412;SDS011;16389;50.126;8.450;2023-03-01T06:34:52;9.52;;;6.28;;
29412;SDS011;16389;50.126;8.450;2023-03-01T06:37:17;11.93;;;6.82;;
29412;SDS011;16389;50.126;8.450;2023-03-01T06:39:43;8.05;;;5.95;;
29412;SDS011;16389;50.126;8.450;2023-03-01T06:42:09;10.52;;;5.97;;
29412;SDS011;16389;50.126;8.450;2023-03-01T06:44:37;11.68;;;5.43;;
29412;SDS011;16389;50.126;8.450;2023-03-01T06:47:03;7.78;;;4.80;;
29412;SDS011;16389;50.126;8.450;2023-03-01T06:49:29;14.82;;;6.10;;
29412;SDS011;16389;50.126;8.450;2023-03-01T06:51:56;8.82;;;5.70;;
29412;SDS011;16389;50.126;8.450;2023-03-01T06:54:22;11.02;;;5.80;;
29412;SDS011;16389;50.126;8.450;2023-03-01T06:56:48;8.63;;;6.45;;
29412;SDS011;16389;50.126;8.450;2023-03-01T06:59:14;6.63;;;5.93;;
29412;SDS011;16389;50.126;8.450;2023-03-01T07:01:41;12.43;;;5.20;;
29412;SDS011;16389;50.126;8.450;2023-03-01T07:04:07;8.63;;;5.57;;
29412;SDS011;16389;50.126;8.450;2023-03-01T07:06:33;11.43;;;6.05;;
29412;SDS011;16389;50.126;8.450;2023-03-01T07:08:58;9.05;;;5.75;;
29412;SDS011;16389;50.126;8.450;2023-03-01T07:11:24;10.75;;;5.72;;
29412;SDS011;16389;50.126;8.450;2023-03-01T07:13:50;12.73;;;6.03;;
29412;SDS011;16389;50.126;8.450;2023-03-01T07:16:15;11.10;;;6.43;;
29412;SDS011;16389;50.126;8.450;2023-03-01T07:18:41;8.05;;;5.47;;
29412;SDS011;16389;50.126;8.450;2023-03-01T07:21:07;14.80;;;5.97;;
29412;SDS011;16389;50.126;8.450;2023-03-01T07:23:34;11.68;;;5.55;;
29412;SDS011;16389;50.126;8.450;2023-03-01T07:26:00;10.52;;;5.63;;
29412;SDS011;16389;50.126;8.450;2023-03-01T07:28:26;9.07;;;5.60;;
29412;SDS011;16389;50.126;8.450;2023-03-01T07:30:52;10.32;;;5.15;;
29412;SDS011;16389;50.126;8.450;2023-03-01T07:33:18;12.65;;;5.68;;
29412;SDS011;16389;50.126;8.450;2023-03-01T07:35:44;11.20;;;6.20;;
29412;SDS011;16389;50.126;8.450;2023-03-01T07:38:09;9.65;;;5.53;;
29412;SDS011;16389;50.126;8.450;2023-03-01T07:40:35;11.82;;;5.93;;
29412;SDS011;16389;50.126;8.450;2023-03-01T07:43:01;9.02;;;5.38;;
29412;SDS011;16389;50.126;8.450;2023-03-01T07:45:26;10.32;;;6.57;;
29412;SDS011;16389;50.126;8.450;2023-03-01T07:47:53;7.70;;;5.32;;
29412;SDS011;16389;50.126;8.450;2023-03-01T07:50:19;9.45;;;5.85;;
29412;SDS011;16389;50.126;8.450;2023-03-01T07:52:45;12.52;;;7.22;;
29412;SDS011;16389;50.126;8.450;2023-03-01T07:55:12;9.18;;;5.95;;
29412;SDS011;16389;50.126;8.450;2023-03-01T07:57:38;9.73;;;6.35;;
29412;SDS011;16389;50.126;8.450;2023-03-01T08:00:03;6.93;;;5.88;;
29412;SDS011;16389;50.126;8.450;2023-03-01T08:02:30;10.85;;;6.53;;
29412;SDS011;16389;50.126;8.450;2023-03-01T08:04:56;6.55;;;5.80;;
29412;SDS011;16389;50.126;8.450;2023-03-01T08:07:21;8.52;;;5.68;;
29412;SDS011;16389;50.126;8.450;2023-03-01T08:09:47;9.35;;;6.32;;
29412;SDS011;16389;50.126;8.450;2023-03-01T08:12:13;10.60;;;6.35;;
29412;SDS011;16389;50.126;8.450;2023-03-01T08:14:38;8.75;;;6.63;;
29412;SDS011;16389;50.126;8.450;2023-03-01T08:17:04;9.63;;;5.53;;
29412;SDS011;16389;50.126;8.450;2023-03-01T08:19:30;11.70;;;6.43;;
29412;SDS011;16389;50.126;8.450;2023-03-01T08:21:56;11.35;;;6.50;;
29412;SDS011;16389;50.126;8.450;2023-03-01T08:24:23;12.48;;;7.05;;
29412;SDS011;16389;50.126;8.450;2023-03-01T08:26:49;11.50;;;6.65;;
29412;SDS011;16389;50.126;8.450;2023-03-01T08:29:14;7.93;;;6.30;;
29412;SDS011;16389;50.126;8.450;2023-03-01T08:31:40;11.57;;;7.25;;
29412;SDS011;16389;50.126;8.450;2023-03-01T08:34:07;11.95;;;6.38;;
29412;SDS011;16389;50.126;8.450;2023-03-01T08:36:35;10.63;;;6.72;;
29412;SDS011;16389;50.126;8.450;2023-03-01T08:39:02;11.00;;;6.88;;
29412;SDS011;16389;50.126;8.450;2023-03-01T08:41:29;13.50;;;7.28;;
29412;SDS011;16389;50.126;8.450;2023-03-01T08:43:55;10.18;;;6.68;;
29412;SDS011;16389;50.126;8.450;2023-03-01T08:46:33;10.60;;;6.68;;
29412;SDS011;16389;50.126;8.450;2023-03-01T08:49:05;8.77;;;6.53;;
29412;SDS011;16389;50.126;8.450;2023-03-01T08:51:36;7.90;;;6.15;;
29412;SDS011;16389;50.126;8.450;2023-03-01T08:54:03;11.02;;;7.03;;
29412;SDS011;16389;50.126;8.450;2023-03-01T08:56:36;8.60;;;5.93;;
29412;SDS011;16389;50.126;8.450;2023-03-01T08:59:02;11.13;;;7.28;;
29412;SDS011;16389;50.126;8.450;2023-03-01T09:01:27;12.80;;;7.22;;
29412;SDS011;16389;50.126;8.450;2023-03-01T09:03:53;12.80;;;7.40;;
29412;SDS011;16389;50.126;8.450;2023-03-01T09:06:19;13.55;;;7.43;;
29412;SDS011;16389;50.126;8.450;2023-03-01T09:08:46;11.13;;;6.95;;
29412;SDS011;16389;50.126;8.450;2023-03-01T09:13:42;11.25;;;6.82;;
29412;SDS011;16389;50.126;8.450;2023-03-01T09:16:08;12.02;;;6.90;;
29412;SDS011;16389;50.126;8.450;2023-03-01T09:18:35;9.23;;;6.95;;
29412;SDS011;16389;50.126;8.450;2023-03-01T09:21:05;11.88;;;7.10;;
29412;SDS011;16389;50.126;8.450;2023-03-01T09:23:36;9.25;;;6.53;;
29412;SDS011;16389;50.126;8.450;2023-03-01T09:26:07;10.35;;;6.85;;
29412;SDS011;16389;50.126;8.450;2023-03-01T09:28:34;10.25;;;7.63;;
29412;SDS011;16389;50.126;8.450;2023-03-01T09:31:09;9.77;;;6.82;;
29412;SDS011;16389;50.126;8.450;2023-03-01T09:33:37;9.57;;;6.72;;
29412;SDS011;16389;50.126;8.450;2023-03-01T09:36:04;11.43;;;7.32;;
29412;SDS011;16389;50.126;8.450;2023-03-01T09:38:32;9.48;;;7.07;;
29412;SDS011;16389;50.126;8.450;2023-03-01T09:40:59;11.45;;;8.40;;
29412;SDS011;16389;50.126;8.450;2023-03-01T09:43:35;9.23;;;7.43;;
29412;SDS011;16389;50.126;8.450;2023-03-01T09:46:11;10.70;;;6.55;;
29412;SDS011;16389;50.126;8.450;2023-03-01T09:48:51;10.10;;;7.50;;
29412;SDS011;16389;50.126;8.450;2023-03-01T09:51:31;12.80;;;7.00;;
29412;SDS011;16389;50.126;8.450;2023-03-01T09:53:59;11.43;;;7.22;;
29412;SDS011;16389;50.126;8.450;2023-03-01T09:59:07;10.57;;;7.38;;
29412;SDS011;16389;50.126;8.450;2023-03-01T10:09:39;10.90;;;7.30;;
29412;SDS011;16389;50.126;8.450;2023-03-01T10:12:11;10.68;;;7.60;;
29412;SDS011;16389;50.126;8.450;2023-03-01T10:14:55;8.60;;;6.28;;
29412;SDS011;16389;50.126;8.450;2023-03-01T10:19:58;10.13;;;7.25;;
29412;SDS011;16389;50.126;8.450;2023-03-01T10:22:49;9.27;;;7.80;;
29412;SDS011;16389;50.126;8.450;2023-03-01T10:25:20;14.73;;;7.40;;
29412;SDS011;16389;50.126;8.450;2023-03-01T10:30:58;13.07;;;7.85;;
29412;SDS011;16389;50.126;8.450;2023-03-01T10:33:26;8.68;;;7.65;;
29412;SDS011;16389;50.126;8.450;2023-03-01T10:35:55;9.48;;;7.10;;
29412;SDS011;16389;50.126;8.450;2023-03-01T10:38:21;10.25;;;7.70;;
29412;SDS011;16389;50.126;8.450;2023-03-01T10:40:54;9.68;;;7.70;;
29412;SDS011;16389;50.126;8.450;2023-03-01T10:43:22;7.43;;;6.35;;
29412;SDS011;16389;50.126;8.450;2023-03-01T10:45:53;9.82;;;6.88;;
29412;SDS011;16389;50.126;8.450;2023-03-01T10:48:25;10.77;;;7.38;;
29412;SDS011;16389;50.126;8.450;2023-03-01T10:53:38;8.95;;;6.55;;
29412;SDS011;16389;50.126;8.450;2023-03-01T10:56:08;9.90;;;6.53;;
29412;SDS011;16389;50.126;8.450;2023-03-01T10:58:36;9.20;;;7.70;;
29412;SDS011;16389;50.126;8.450;2023-03-01T11:03:41;10.90;;;6.75;;
29412;SDS011;16389;50.126;8.450;2023-03-01T11:08:40;8.55;;;6.35;;
29412;SDS011;16389;50.126;8.450;2023-03-01T11:14:30;6.93;;;6.23;;
29412;SDS011;16389;50.126;8.450;2023-03-01T11:16:57;9.27;;;7.18;;
29412;SDS011;16389;50.126;8.450;2023-03-01T11:19:31;7.75;;;7.00;;
29412;SDS011;16389;50.126;8.450;2023-03-01T11:22:05;9.27;;;6.72;;
29412;SDS011;16389;50.126;8.450;2023-03-01T11:29:46;8.38;;;7.18;;
29412;SDS011;16389;50.126;8.450;2023-03-01T11:32:41;9.70;;;6.30;;
29412;SDS011;16389;50.126;8.450;2023-03-01T11:35:15;6.63;;;5.93;;
29412;SDS011;16389;50.126;8.450;2023-03-01T11:43:14;7.18;;;5.35;;
29412;SDS011;16389;50.126;8.450;2023-03-01T11:51:24;5.70;;;4.82;;
29412;SDS011;16389;50.126;8.450;2023-03-01T11:54:10;7.05;;;5.75;;
29412;SDS011;16389;50.126;8.450;2023-03-01T11:57:01;6.15;;;5.55;;
29412;SDS011;16389;50.126;8.450;2023-03-01T12:08:03;6.20;;;5.60;;
29412;SDS011;16389;50.126;8.450;2023-03-01T12:13:44;6.03;;;4.60;;
29412;SDS011;16389;50.126;8.450;2023-03-01T12:16:23;6.65;;;5.32;;
29412;SDS011;16389;50.126;8.450;2023-03-01T12:19:10;6.70;;;4.88;;
29412;SDS011;16389;50.126;8.450;2023-03-01T12:24:48;9.90;;;5.63;;
29412;SDS011;16389;50.126;8.450;2023-03-01T12:30:17;5.20;;;4.70;;
29412;SDS011;16389;50.126;8.450;2023-03-01T12:35:47;5.47;;;4.97;;
29412;SDS011;16389;50.126;8.450;2023-03-01T12:46:35;7.40;;;5.75;;
29412;SDS011;16389;50.126;8.450;2023-03-01T12:49:31;7.28;;;5.13;;
29412;SDS011;16389;50.126;8.450;2023-03-01T12:52:27;6.85;;;5.13;;
29412;SDS011;16389;50.126;8.450;2023-03-01T12:54:58;10.80;;;4.65;;
29412;SDS011;16389;50.126;8.450;2023-03-01T12:57:35;9.57;;;5.17;;
29412;SDS011;16389;50.126;8.450;2023-03-01T13:03:00;6.60;;;5.00;;
29412;SDS011;16389;50.126;8.450;2023-03-01T13:05:56;6.82;;;6.18;;
29412;SDS011;16389;50.126;8.450;2023-03-01T13:08:42;7.85;;;5.43;;
29412;SDS011;16389;50.126;8.450;2023-03-01T13:11:18;7.28;;;5.90;;
29412;SDS011;16389;50.126;8.450;2023-03-01T13:13:46;7.82;;;5.95;;
29412;SDS011;16389;50.126;8.450;2023-03-01T13:16:47;9.38;;;5.63;;
29412;SDS011;16389;50.126;8.450;2023-03-01T13:21:38;7.13;;;5.38;;
29412;SDS011;16389;50.126;8.450;2023-03-01T13:24:04;8.90;;;5.68;;
29412;SDS011;16389;50.126;8.450;2023-03-01T13:29:45;9.35;;;5.25;;
29412;SDS011;16389;50.126;8.450;2023-03-01T13:34:52;7.45;;;5.30;;
29412;SDS011;16389;50.126;8.450;2023-03-01T13:37:21;6.07;;;5.50;;
29412;SDS011;16389;50.126;8.450;2023-03-01T13:39:51;6.65;;;5.38;;
29412;SDS011;16389;50.126;8.450;2023-03-01T13:42:35;8.13;;;6.05;;
29412;SDS011;16389;50.126;8.450;2023-03-01T13:45:04;8.77;;;5.32;;
29412;SDS011;16389;50.126;8.450;2023-03-01T13:47:42;7.35;;;5.68;;
29412;SDS011;16389;50.126;8.450;2023-03-01T13:50:16;8.05;;;5.57;;
29412;SDS011;16389;50.126;8.450;2023-03-01T13:52:56;6.95;;;5.65;;
29412;SDS011;16389;50.126;8.450;2023-03-01T14:00:45;11.32;;;5.75;;
29412;SDS011;16389;50.126;8.450;2023-03-01T14:03:15;5.68;;;4.68;;
29412;SDS011;16389;50.126;8.450;2023-03-01T14:05:44;6.72;;;5.15;;
29412;SDS011;16389;50.126;8.450;2023-03-01T14:08:26;6.65;;;5.63;;
29412;SDS011;16389;50.126;8.450;2023-03-01T14:10:57;6.85;;;5.95;;
29412;SDS011;16389;50.126;8.450;2023-03-01T14:19:45;8.13;;;4.95;;
29412;SDS011;16389;50.126;8.450;2023-03-01T14:24:54;6.40;;;5.03;;
29412;SDS011;16389;50.126;8.450;2023-03-01T14:27:37;8.02;;;5.43;;
29412;SDS011;16389;50.126;8.450;2023-03-01T14:32:54;8.43;;;5.55;;
29412;SDS011;16389;50.126;8.450;2023-03-01T14:35:23;7.22;;;5.90;;
29412;SDS011;16389;50.126;8.450;2023-03-01T14:37:51;5.13;;;4.63;;
29412;SDS011;16389;50.126;8.450;2023-03-01T14:40:35;5.72;;;4.78;;
29412;SDS011;16389;50.126;8.450;2023-03-01T14:43:04;11.60;;;5.68;;
29412;SDS011;16389;50.126;8.450;2023-03-01T14:45:35;10.18;;;5.20;;
29412;SDS011;16389;50.126;8.450;2023-03-01T14:48:02;6.53;;;5.38;;
29412;SDS011;16389;50.126;8.450;2023-03-01T14:50:31;4.80;;;4.35;;
29412;SDS011;16389;50.126;8.450;2023-03-01T14:53:03;12.02;;;5.05;;
29412;SDS011;16389;50.126;8.450;2023-03-01T14:55:50;7.90;;;5.63;;
29412;SDS011;16389;50.126;8.450;2023-03-01T14:58:20;6.13;;;4.90;;
29412;SDS011;16389;50.126;8.450;2023-03-01T15:00:51;7.32;;;5.18;;
29412;SDS011;16389;50.126;8.450;2023-03-01T15:03:35;6.88;;;4.80;;
29412;SDS011;16389;50.126;8.450;2023-03-01T15:06:09;8.43;;;5.10;;
29412;SDS011;16389;50.126;8.450;2023-03-01T15:08:37;9.00;;;5.32;;
29412;SDS011;16389;50.126;8.450;2023-03-01T15:13:47;7.47;;;5.25;;
29412;SDS011;16389;50.126;8.450;2023-03-01T15:16:13;8.65;;;5.47;;
29412;SDS011;16389;50.126;8.450;2023-03-01T15:18:57;6.82;;;5.25;;
29412;SDS011;16389;50.126;8.450;2023-03-01T15:21:25;7.97;;;5.57;;
29412;SDS011;16389;50.126;8.450;2023-03-01T15:23:54;6.05;;;5.05;;
29412;SDS011;16389;50.126;8.450;2023-03-01T15:26:44;5.97;;;5.18;;
29412;SDS011;16389;50.126;8.450;2023-03-01T15:29:14;11.10;;;5.28;;
29412;SDS011;16389;50.126;8.450;2023-03-01T15:31:56;6.82;;;4.85;;
29412;SDS011;16389;50.126;8.450;2023-03-01T15:36:59;6.50;;;5.50;;
29412;SDS011;16389;50.126;8.450;2023-03-01T15:45:07;8.82;;;5.38;;
29412;SDS011;16389;50.126;8.450;2023-03-01T15:47:50;9.35;;;4.70;;
29412;SDS011;16389;50.126;8.450;2023-03-01T15:50:38;11.40;;;5.13;;
29412;SDS011;16389;50.126;8.450;2023-03-01T15:53:06;8.13;;;4.85;;
29412;SDS011;16389;50.126;8.450;2023-03-01T15:55:36;7.35;;;4.75;;
29412;SDS011;16389;50.126;8.450;2023-03-01T15:58:21;8.27;;;5.50;;
29412;SDS011;16389;50.126;8.450;2023-03-01T16:00:49;9.50;;;5.65;;
29412;SDS011;16389;50.126;8.450;2023-03-01T16:03:20;6.53;;;5.65;;
29412;SDS011;16389;50.126;8.450;2023-03-01T16:05:47;8.77;;;5.07;;
29412;SDS011;16389;50.126;8.450;2023-03-01T16:08:14;8.15;;;5.72;;
29412;SDS011;16389;50.126;8.450;2023-03-01T16:10:40;7.97;;;6.15;;
29412;SDS011;16389;50.126;8.450;2023-03-01T16:13:08;6.75;;;4.68;;
29412;SDS011;16389;50.126;8.450;2023-03-01T16:15:34;7.13;;;6.05;;
29412;SDS011;16389;50.126;8.450;2023-03-01T16:18:01;6.93;;;5.57;;
29412;SDS011;16389;50.126;8.450;2023-03-01T16:20:27;8.15;;;5.30;;
29412;SDS011;16389;50.126;8.450;2023-03-01T16:22:54;10.50;;;6.15;;
29412;SDS011;16389;50.126;8.450;2023-03-01T16:25:27;7.72;;;5.20;;
29412;SDS011;16389;50.126;8.450;2023-03-01T16:27:54;6.75;;;5.53;;
29412;SDS011;16389;50.126;8.450;2023-03-01T16:30:21;7.88;;;5.53;;
29412;SDS011;16389;50.126;8.450;2023-03-01T16:32:48;7.22;;;5.03;;
29412;SDS011;16389;50.126;8.450;2023-03-01T16:35:14;8.10;;;4.85;;
29412;SDS011;16389;50.126;8.450;2023-03-01T16:37:42;9.65;;;5.50;;
29412;SDS011;16389;50.126;8.450;2023-03-01T16:40:25;8.52;;;5.15;;
29412;SDS011;16389;50.126;8.450;2023-03-01T16:42:52;10.07;;;6.28;;
29412;SDS011;16389;50.126;8.450;2023-03-01T16:45:20;11.15;;;4.45;;
29412;SDS011;16389;50.126;8.450;2023-03-01T16:47:46;8.05;;;4.55;;
29412;SDS011;16389;50.126;8.450;2023-03-01T16:50:11;7.63;;;5.50;;
29412;SDS011;16389;50.126;8.450;2023-03-01T16:52:37;6.82;;;4.63;;
29412;SDS011;16389;50.126;8.450;2023-03-01T16:55:05;7.68;;;5.32;;
29412;SDS011;16389;50.126;8.450;2023-03-01T16:57:33;6.57;;;5.82;;
29412;SDS011;16389;50.126;8.450;2023-03-01T16:59:59;7.72;;;5.32;;
29412;SDS011;16389;50.126;8.450;2023-03-01T17:02:25;7.45;;;5.07;;
29412;SDS011;16389;50.126;8.450;2023-03-01T17:04:54;7.30;;;4.60;;